NORTHERN NASSAU  -  Coastal Flood Statement Coastal Flood Statement        SOUTHERN NASSAU  -  Coastal Flood Statement Coastal Flood Statement      

Active alerts

Northern Nassau
  Details for Northern Nassau Coastal Flood Statement
Southern Nassau
  Details for Southern Nassau Coastal Flood Statement


WXM80 ListenWXM80 Stop

You find our weather info also at:

UK Metoffice

WeatherCloud

Weather Underground

Northeastern Weather Network

AWEKAS

Citizen Weather Observer Program (CWOP)

HAMweather, WeatherForYou, PWS Weather


Weather Underground History page Text

Daily Summary for February 1, 2017 Units:  Metric    English   Both
« Previous Day
Next Day »
Daily Weekly Monthly Yearly Custom
  High: Low: Average:
Temperature: 7.6 °C -1.2 °C 3.8 °C
Dew Point: 1.1 °C -2.1 °C -0.6 °C
Humidity: 96 % 54 % 75 %
Wind Speed: 17.4 km/h 0 km/h 5.3 km/h
Wind Gust: 32.2 km/h - -
Wind:- - WSW
Pressure: 1016.1 hPa 1009 hPa -
Precipitation: 0 mm    
Historical Graphs
 
 
Tabular Data for February 1, 2017
Time Temperature Dew Point Pressure Wind Wind Speed Wind Gust Humidity Rainfall Rate (Hourly)
00:02 -0.2 °C -1 °C 1009.4 hPa ENE 0.6 km/h 1.9 km/h 94 % 0 mm
00:07 -0.2 °C -1 °C 1009.4 hPa East 1.8 km/h 3.7 km/h 94 % 0 mm
00:12 -0.2 °C -0.9 °C 1009.4 hPa Calm   1.9 km/h 95 % 0 mm
00:17 -0.2 °C -0.9 °C 1009.4 hPa East 0.8 km/h 1.9 km/h 95 % 0 mm
00:22 -0.2 °C -0.9 °C 1009 hPa Calm     95 % 0 mm
00:27 -0.2 °C -0.9 °C 1009 hPa Calm     95 % 0 mm
00:32 -0.2 °C -0.9 °C 1009.4 hPa East 0.2 km/h 1.9 km/h 95 % 0 mm
00:37 -0.2 °C -0.9 °C 1009.4 hPa Calm   1.9 km/h 95 % 0 mm
00:42 -0.2 °C -0.9 °C 1009.4 hPa East 0.3 km/h 1.9 km/h 95 % 0 mm
00:47 -0.2 °C -0.9 °C 1009.4 hPa Calm     95 % 0 mm
00:52 -0.2 °C -0.9 °C 1009.4 hPa Calm     95 % 0 mm
00:57 -0.2 °C -0.9 °C 1009.4 hPa East 0.2 km/h 3.7 km/h 95 % 0 mm
01:02 -0.2 °C -0.9 °C 1009.4 hPa Calm   1.9 km/h 95 % 0 mm
01:07 -0.2 °C -0.9 °C 1009.4 hPa Calm     95 % 0 mm
01:12 -0.2 °C -0.9 °C 1009.7 hPa Calm     95 % 0 mm
01:17 -0.3 °C -1 °C 1010 hPa Calm     95 % 0 mm
01:22 -0.2 °C -0.9 °C 1010 hPa Calm     95 % 0 mm
01:27 -0.2 °C -0.9 °C 1010 hPa Calm     95 % 0 mm
01:32 -0.3 °C -1 °C 1010 hPa Calm     95 % 0 mm
01:38 -0.2 °C -0.9 °C 1010 hPa Calm     95 % 0 mm
01:43 -0.3 °C -1 °C 1010 hPa Calm     95 % 0 mm
01:48 -0.3 °C -1 °C 1010 hPa Calm   1.9 km/h 95 % 0 mm
01:53 -0.3 °C -1 °C 1010 hPa SSE 1.9 km/h 3.7 km/h 95 % 0 mm
01:58 -0.3 °C -1 °C 1010 hPa SSW 0.6 km/h 5.6 km/h 95 % 0 mm
02:03 -0.3 °C -1 °C 1010 hPa Calm     95 % 0 mm
02:08 -0.3 °C -1 °C 1010 hPa SW 1.3 km/h 4.8 km/h 95 % 0 mm
02:13 -0.2 °C -0.9 °C 1010.4 hPa SW 3.2 km/h 3.7 km/h 95 % 0 mm
02:18 -0.2 °C -0.9 °C 1010 hPa Calm     95 % 0 mm
02:23 -0.2 °C -0.9 °C 1010 hPa SW 3.4 km/h 5.6 km/h 95 % 0 mm
02:28 -0.2 °C -0.9 °C 1010 hPa Calm   1.9 km/h 95 % 0 mm
02:33 -0.2 °C -0.9 °C 1010 hPa Calm   1.6 km/h 95 % 0 mm
02:38 -0.2 °C -0.9 °C 1010 hPa Calm     95 % 0 mm
02:43 -0.2 °C -0.9 °C 1010 hPa Calm     95 % 0 mm
02:48 -0.2 °C -0.9 °C 1010 hPa Calm   1.9 km/h 95 % 0 mm
02:53 -0.2 °C -0.9 °C 1010 hPa Calm     95 % 0 mm
02:58 -0.3 °C -1 °C 1010 hPa Calm     95 % 0 mm
03:03 -0.3 °C -1 °C 1010 hPa Calm     95 % 0 mm
03:08 -0.3 °C -1 °C 1009.7 hPa Calm   1.9 km/h 95 % 0 mm
03:13 -0.3 °C -1.1 °C 1010 hPa Calm     95 % 0 mm
03:18 -0.4 °C -1.1 °C 1009.7 hPa Calm     95 % 0 mm
03:19 -0.4 °C -1.1 °C 1009.7 hPa Calm     95 % 0 mm
03:24 -0.4 °C -1.3 °C 1010 hPa Calm     94 % 0 mm
03:29 -0.6 °C -1.4 °C 1009.7 hPa Calm     94 % 0 mm
03:35 -0.7 °C -1.5 °C 1009.7 hPa Calm     94 % 0 mm
03:40 -0.8 °C -1.6 °C 1010 hPa SW 1.6 km/h 3.7 km/h 94 % 0 mm
03:45 -0.8 °C -1.7 °C 1010.4 hPa SW 0.8 km/h 3.7 km/h 94 % 0 mm
03:50 -0.9 °C -1.8 °C 1010.7 hPa SW 0.2 km/h 1.9 km/h 94 % 0 mm
03:55 -1 °C -1.8 °C 1010.7 hPa SW 1.6 km/h 3.7 km/h 94 % 0 mm
04:00 -1.1 °C -1.9 °C 1010.4 hPa SW 1.8 km/h 3.7 km/h 94 % 0 mm
04:05 -1.2 °C -2 °C 1010.4 hPa SW 0.6 km/h 1.9 km/h 94 % 0 mm
04:10 -1.2 °C -2 °C 1010.4 hPa SW 0.3 km/h 1.9 km/h 94 % 0 mm
04:15 -1.2 °C -2.1 °C 1010.4 hPa SW 0.6 km/h 3.7 km/h 94 % 0 mm
04:20 -1.2 °C -2 °C 1010.4 hPa SW 0.2 km/h 1.9 km/h 94 % 0 mm
04:25 -1.2 °C -2 °C 1010.4 hPa SW 1.4 km/h 5.6 km/h 94 % 0 mm
04:30 -1.2 °C -2 °C 1010.4 hPa SW 3.7 km/h 5.6 km/h 94 % 0 mm
04:31 -1.2 °C -2 °C 1010 hPa SW 3.1 km/h 5.6 km/h 94 % 0 mm
04:36 -1.1 °C -1.9 °C 1010 hPa SW 0.5 km/h 1.9 km/h 94 % 0 mm
04:41 -1.1 °C -1.9 °C 1010 hPa SW 0.8 km/h 3.2 km/h 94 % 0 mm
04:46 -1 °C -1.7 °C 1010 hPa SW 6.6 km/h 11.1 km/h 95 % 0 mm
04:51 -0.9 °C -1.7 °C 1010 hPa SW 2.9 km/h 8 km/h 95 % 0 mm
04:56 -0.8 °C -1.5 °C 1010 hPa SW 5.5 km/h 9.7 km/h 95 % 0 mm
05:01 -0.6 °C -1.3 °C 1010 hPa SW 3.9 km/h 5.6 km/h 95 % 0 mm
05:06 -0.3 °C -0.8 °C 1010 hPa SW 7.7 km/h 11.1 km/h 96 % 0 mm
05:11 -0.1 °C -0.8 °C 1010 hPa SSW 6.3 km/h 13 km/h 95 % 0 mm
05:16 0.2 °C -0.6 °C 1010 hPa SW 2.9 km/h 8 km/h 95 % 0 mm
05:21 0.3 °C -0.4 °C 1010.4 hPa SSW 3.7 km/h 13 km/h 95 % 0 mm
05:26 0.6 °C -0.2 °C 1010.4 hPa SSW 5.5 km/h 11.3 km/h 95 % 0 mm
05:31 0.8 °C -0.1 °C 1010.4 hPa SW 4.7 km/h 14.5 km/h 94 % 0 mm
05:36 1 °C 0.2 °C 1010.4 hPa SW 12.4 km/h 18.5 km/h 94 % 0 mm
05:41 1.3 °C 0.3 °C 1010.4 hPa SSW 8 km/h 18.5 km/h 93 % 0 mm
05:46 1.6 °C 0.3 °C 1010.7 hPa SSW 7.6 km/h 11.1 km/h 91 % 0 mm
05:51 1.9 °C 0.3 °C 1010.7 hPa SW 9.2 km/h 14.8 km/h 89 % 0 mm
05:56 2.1 °C 0.3 °C 1010.7 hPa SSW 3.4 km/h 9.3 km/h 88 % 0 mm
06:02 2.2 °C 0.2 °C 1011.1 hPa SSW 11.6 km/h 14.5 km/h 87 % 0 mm
06:07 2.3 °C 0.2 °C 1011.1 hPa SSW 3.2 km/h 3.7 km/h 86 % 0 mm
06:12 2.4 °C 0.1 °C 1011.1 hPa SSW 5.3 km/h 18.5 km/h 85 % 0 mm
06:17 2.4 °C -0.1 °C 1011.1 hPa South 10 km/h 16.7 km/h 84 % 0 mm
06:22 2.4 °C 0 °C 1011.1 hPa SW 6.8 km/h 16.7 km/h 84 % 0 mm
06:27 2.4 °C -0.2 °C 1011.1 hPa SSW 7.1 km/h 11.3 km/h 83 % 0 mm
06:32 2.5 °C -0.1 °C 1011.1 hPa South 11.4 km/h 20.4 km/h 83 % 0 mm
06:37 2.6 °C -0.1 °C 1011.1 hPa NNW 4.5 km/h 16.7 km/h 83 % 0 mm
06:42 2.6 °C -0.2 °C 1011.1 hPa WSW 7.6 km/h 13 km/h 82 % 0 mm
06:47 2.6 °C -0.2 °C 1011.1 hPa SW 8.5 km/h 13 km/h 82 % 0 mm
06:52 2.6 °C -0.4 °C 1011.4 hPa SW 6.3 km/h 11.1 km/h 81 % 0 mm
06:57 2.6 °C -0.3 °C 1011.4 hPa WSW 7.2 km/h 14.8 km/h 81 % 0 mm
07:02 2.7 °C -0.4 °C 1011.4 hPa South 8.4 km/h 11.1 km/h 80 % 0 mm
07:07 2.7 °C -0.4 °C 1011.7 hPa SSW 5.5 km/h 11.1 km/h 80 % 0 mm
07:12 2.7 °C -0.4 °C 1011.7 hPa SW 6.9 km/h 11.1 km/h 80 % 0 mm
07:17 2.8 °C -0.3 °C 1011.7 hPa SW 5.3 km/h 9.3 km/h 80 % 0 mm
07:22 2.8 °C -0.3 °C 1011.7 hPa SSW 7.9 km/h 9.7 km/h 80 % 0 mm
07:27 2.8 °C -0.3 °C 1011.7 hPa WSW 9.2 km/h 13 km/h 80 % 0 mm
07:32 2.8 °C -0.4 °C 1011.7 hPa SW 4.3 km/h 7.4 km/h 79 % 0 mm
07:37 2.9 °C -0.4 °C 1011.7 hPa South 7.9 km/h 11.1 km/h 79 % 0 mm
07:42 2.9 °C -0.4 °C 1011.7 hPa WSW 6.1 km/h 13 km/h 79 % 0 mm
07:47 2.9 °C -0.5 °C 1011.7 hPa SSW 10.3 km/h 18.5 km/h 78 % 0 mm
07:53 3.1 °C -0.4 °C 1011.7 hPa WSW 6.1 km/h 16.7 km/h 78 % 0 mm
07:58 3.1 °C -0.6 °C 1011.7 hPa South 5.6 km/h 11.3 km/h 77 % 0 mm
08:03 3.2 °C -0.4 °C 1011.7 hPa West 3.2 km/h 13 km/h 77 % 0 mm
08:08 3.2 °C -0.4 °C 1012.1 hPa WSW 2.4 km/h 9.7 km/h 77 % 0 mm
08:13 3.3 °C -0.6 °C 1012.1 hPa SW 7.4 km/h 13 km/h 76 % 0 mm
08:18 3.4 °C -0.6 °C 1012.1 hPa WSW 3.2 km/h 11.1 km/h 75 % 0 mm
08:23 3.5 °C -0.5 °C 1012.1 hPa SSW 4.8 km/h 9.3 km/h 75 % 0 mm
08:28 3.6 °C -0.6 °C 1012.1 hPa WSW 10.6 km/h 14.8 km/h 74 % 0 mm
08:33 3.8 °C -0.4 °C 1012.1 hPa South 9.2 km/h 16.1 km/h 74 % 0 mm
08:38 4 °C -0.4 °C 1012.1 hPa SW 4.8 km/h 7.4 km/h 73 % 0 mm
08:43 4.2 °C -0.4 °C 1011.7 hPa WSW 8 km/h 20.9 km/h 72 % 0 mm
08:48 4.3 °C -0.4 °C 1011.7 hPa WSW 9.7 km/h 25.7 km/h 71 % 0 mm
08:53 4.6 °C -0.6 °C 1012.1 hPa WSW 14.5 km/h 32.2 km/h 69 % 0 mm
08:58 4.8 °C -0.6 °C 1012.1 hPa West 5.5 km/h 13 km/h 68 % 0 mm
09:03 4.9 °C -0.3 °C 1012.1 hPa WSW 3.2 km/h 24.1 km/h 69 % 0 mm
09:08 4.9 °C -0.5 °C 1012.1 hPa SW 9.7 km/h 19.3 km/h 68 % 0 mm
09:13 5 °C -0.4 °C 1012.1 hPa WSW 8.9 km/h 18.5 km/h 68 % 0 mm
09:18 5.1 °C -0.6 °C 1012.1 hPa SW 8 km/h 20.9 km/h 67 % 0 mm
09:23 5.2 °C -0.7 °C 1012.1 hPa SW 9.7 km/h 19.3 km/h 66 % 0 mm
09:28 5.2 °C -0.6 °C 1012.1 hPa West 10.8 km/h 20.9 km/h 66 % 0 mm
09:33 5.3 °C -0.8 °C 1012.1 hPa WSW 11.3 km/h 24.1 km/h 65 % 0 mm
09:38 5.3 °C -0.5 °C 1012.4 hPa WSW 11.3 km/h 22.5 km/h 66 % 0 mm
09:43 5.4 °C -0.7 °C 1012.8 hPa WSW 9.7 km/h 24.1 km/h 65 % 0 mm
09:48 5.4 °C -0.8 °C 1012.4 hPa WSW 11.3 km/h 19.3 km/h 64 % 0 mm
09:53 5.5 °C -0.8 °C 1012.4 hPa WSW 4.8 km/h 24.1 km/h 64 % 0 mm
09:59 5.6 °C -0.7 °C 1012.4 hPa SW 9.5 km/h 24.1 km/h 64 % 0 mm
10:04 5.6 °C -0.9 °C 1012.4 hPa West 13.4 km/h 20.4 km/h 63 % 0 mm
10:09 5.6 °C -0.7 °C 1012.4 hPa NW 6.1 km/h 16.1 km/h 64 % 0 mm
10:14 5.6 °C -0.7 °C 1012.4 hPa West 8.4 km/h 16.7 km/h 64 % 0 mm
10:19 5.6 °C -0.7 °C 1012.4 hPa WSW 8.2 km/h 14.8 km/h 64 % 0 mm
10:24 5.7 °C -0.8 °C 1012.4 hPa WNW 8 km/h 18.5 km/h 63 % 0 mm
10:29 5.7 °C -0.8 °C 1012.4 hPa WSW 15.6 km/h 29 km/h 63 % 0 mm
10:34 5.7 °C -1.1 °C 1012.4 hPa West 15.4 km/h 25.9 km/h 62 % 0 mm
10:39 5.6 °C -1.1 °C 1012.4 hPa WNW 15.9 km/h 24.1 km/h 62 % 0 mm
10:44 5.6 °C -1.3 °C 1012.4 hPa WSW 14.2 km/h 24.1 km/h 61 % 0 mm
10:49 5.6 °C -1.3 °C 1012.4 hPa SE 7.7 km/h 18.5 km/h 61 % 0 mm
10:54 5.6 °C -1.3 °C 1012.4 hPa WSW 11.3 km/h 29.6 km/h 61 % 0 mm
10:59 5.7 °C -1.3 °C 1012.4 hPa WSW 14.3 km/h 19.3 km/h 61 % 0 mm
11:04 5.7 °C -1.5 °C 1012.4 hPa West 17.4 km/h 31.5 km/h 60 % 0 mm
11:09 5.7 °C -1.5 °C 1012.4 hPa WNW 12.4 km/h 22.2 km/h 60 % 0 mm
11:14 5.7 °C -1.2 °C 1012.8 hPa SW 15.1 km/h 20.9 km/h 61 % 0 mm
11:19 5.8 °C -1.6 °C 1012.4 hPa WSW 14.3 km/h 19.3 km/h 59 % 0 mm
11:24 5.8 °C -1.6 °C 1012.4 hPa WSW 11.7 km/h 18.5 km/h 59 % 0 mm
11:29 5.8 °C -1.6 °C 1012.4 hPa WSW 17.2 km/h 29.6 km/h 59 % 0 mm
11:35 5.8 °C -1.6 °C 1012.4 hPa SSW 9.3 km/h 18.5 km/h 59 % 0 mm
11:40 5.9 °C -1.3 °C 1012.4 hPa SW 14.3 km/h 22.5 km/h 60 % 0 mm
11:45 5.9 °C -1.5 °C 1012.1 hPa WNW 7.4 km/h 18.5 km/h 59 % 0 mm
11:50 6 °C -1.4 °C 1012.4 hPa West 10.9 km/h 16.7 km/h 59 % 0 mm
11:55 6 °C -1.4 °C 1012.4 hPa WSW 5.8 km/h 9.7 km/h 59 % 0 mm
12:00 6.2 °C -0.8 °C 1012.1 hPa WSW 8.4 km/h 16.1 km/h 61 % 0 mm
12:05 6.4 °C -1.2 °C 1011.7 hPa SSW 6.9 km/h 14.8 km/h 58 % 0 mm
12:10 6.7 °C -0.9 °C 1011.7 hPa WSW 8.9 km/h 14.8 km/h 58 % 0 mm
12:15 6.7 °C -1.2 °C 1011.7 hPa West 7.4 km/h 13 km/h 57 % 0 mm
12:20 6.7 °C -1.4 °C 1011.7 hPa WSW 10.6 km/h 20.4 km/h 56 % 0 mm
12:25 6.7 °C -1.7 °C 1011.7 hPa SW 11.9 km/h 22.2 km/h 55 % 0 mm
12:30 6.7 °C -1.5 °C 1011.7 hPa West 7.1 km/h 19.3 km/h 56 % 0 mm
12:35 6.7 °C -1.7 °C 1011.7 hPa West 10.6 km/h 14.8 km/h 55 % 0 mm
12:40 6.6 °C -1.6 °C 1011.7 hPa West 12.1 km/h 17.7 km/h 56 % 0 mm
12:45 6.6 °C -1.6 °C 1011.7 hPa West 7.9 km/h 16.1 km/h 56 % 0 mm
12:50 6.6 °C -1.6 °C 1011.4 hPa SW 10.1 km/h 18.5 km/h 56 % 0 mm
12:55 6.6 °C -1.3 °C 1011.7 hPa SW 6.4 km/h 11.1 km/h 57 % 0 mm
13:00 6.7 °C -1.3 °C 1011.4 hPa SSW 7.6 km/h 14.8 km/h 57 % 0 mm
13:05 6.8 °C -1.1 °C 1011.4 hPa SW 7.6 km/h 13 km/h 57 % 0 mm
13:11 7 °C -1.2 °C 1011.4 hPa SW 9.2 km/h 13 km/h 56 % 0 mm
13:16 7.2 °C -0.8 °C 1011.4 hPa WSW 8.9 km/h 14.8 km/h 57 % 0 mm
13:21 7.3 °C -1.1 °C 1011.1 hPa SSW 7.6 km/h 18.5 km/h 55 % 0 mm
13:26 7.5 °C -0.9 °C 1011.1 hPa WSW 10.8 km/h 18.5 km/h 55 % 0 mm
13:31 7.6 °C -0.9 °C 1011.4 hPa SSW 6.1 km/h 7.4 km/h 55 % 0 mm
13:36 7.6 °C -0.9 °C 1011.4 hPa West 7.9 km/h 14.8 km/h 55 % 0 mm
13:41 7.6 °C -0.9 °C 1011.1 hPa SSW 9.2 km/h 14.8 km/h 55 % 0 mm
13:46 7.5 °C -1.2 °C 1011.1 hPa WSW 8.2 km/h 18.5 km/h 54 % 0 mm
13:51 7.5 °C -0.9 °C 1011.4 hPa WSW 7.4 km/h 11.1 km/h 55 % 0 mm
13:56 7.5 °C -1.2 °C 1011.1 hPa WSW 3.1 km/h 7.4 km/h 54 % 0 mm
14:01 7.4 °C -1 °C 1011.1 hPa West 7.4 km/h 13 km/h 55 % 0 mm
14:06 7.4 °C -1.3 °C 1011.1 hPa WSW 2.9 km/h 5.6 km/h 54 % 0 mm
14:11 7.4 °C -1.3 °C 1011.1 hPa West 3.9 km/h 6.4 km/h 54 % 0 mm
14:16 7.4 °C -1 °C 1011.1 hPa West 4.8 km/h 7.4 km/h 55 % 0 mm
14:21 7.4 °C -1 °C 1011.1 hPa WSW 5.6 km/h 13 km/h 55 % 0 mm
14:26 7.4 °C -1.1 °C 1011.1 hPa SW 5.1 km/h 11.3 km/h 55 % 0 mm
14:31 7.4 °C -1.1 °C 1011.1 hPa WSW 2.3 km/h 5.6 km/h 55 % 0 mm
14:36 7.3 °C -1.1 °C 1011.1 hPa SW 3.7 km/h 7.4 km/h 55 % 0 mm
14:41 7.4 °C -1.1 °C 1011.4 hPa WSW 2.6 km/h 7.4 km/h 55 % 0 mm
14:46 7.3 °C -1.1 °C 1011.4 hPa WSW 5.6 km/h 9.3 km/h 55 % 0 mm
14:51 7.3 °C -1.1 °C 1011.4 hPa West 13.2 km/h 25.9 km/h 55 % 0 mm
14:56 7.3 °C -1.1 °C 1011.4 hPa West 2.4 km/h 9.3 km/h 55 % 0 mm
15:01 7.3 °C -0.9 °C 1011.4 hPa SW 0.3 km/h 3.7 km/h 56 % 0 mm
15:06 7.3 °C -1.2 °C 1011.4 hPa WSW 2.7 km/h 5.6 km/h 55 % 0 mm
15:11 7.3 °C -0.7 °C 1011.4 hPa WSW 0.6 km/h 5.6 km/h 57 % 0 mm
15:12 7.3 °C -0.7 °C 1011.4 hPa WSW 0.3 km/h 1.9 km/h 57 % 0 mm
15:17 7.3 °C -0.9 °C 1011.7 hPa WSW 4.5 km/h 6.4 km/h 56 % 0 mm
15:22 7.2 °C -1 °C 1011.7 hPa WSW 1.4 km/h 5.6 km/h 56 % 0 mm
15:27 7.2 °C -1 °C 1011.7 hPa WSW 0.6 km/h 3.7 km/h 56 % 0 mm
15:32 7.2 °C -1 °C 1011.7 hPa WSW 7.2 km/h 20.9 km/h 56 % 0 mm
15:37 7.2 °C -1.5 °C 1012.1 hPa WSW 9.3 km/h 18.5 km/h 54 % 0 mm
15:42 7.3 °C -0.9 °C 1011.7 hPa WSW 3.2 km/h 14.8 km/h 56 % 0 mm
15:47 7.3 °C -0.9 °C 1011.7 hPa West 4.3 km/h 14.8 km/h 56 % 0 mm
15:52 7.3 °C -0.9 °C 1012.1 hPa WSW 7.9 km/h 12.9 km/h 56 % 0 mm
15:57 7.2 °C -0.7 °C 1012.1 hPa SW 4.2 km/h 9.3 km/h 57 % 0 mm
16:02 7.2 °C -0.8 °C 1012.1 hPa West 6.8 km/h 18.5 km/h 57 % 0 mm
16:07 7.2 °C -1 °C 1012.1 hPa WSW 4.7 km/h 13 km/h 56 % 0 mm
16:13 7.2 °C -1 °C 1012.1 hPa WNW 10.6 km/h 18.5 km/h 56 % 0 mm
16:18 7.3 °C -0.7 °C 1012.1 hPa SW 7.9 km/h 16.1 km/h 57 % 0 mm
16:23 7.3 °C -0.4 °C 1012.4 hPa SW 3.4 km/h 13 km/h 58 % 0 mm
16:28 7.2 °C -0.7 °C 1012.4 hPa West 1.8 km/h 5.6 km/h 57 % 0 mm
16:33 7.2 °C -0.5 °C 1012.4 hPa SW 3.7 km/h 12.9 km/h 58 % 0 mm
16:38 7.2 °C -0.6 °C 1012.4 hPa West 5.5 km/h 13 km/h 58 % 0 mm
16:43 7.1 °C -0.8 °C 1012.4 hPa WSW 6.1 km/h 13 km/h 57 % 0 mm
16:48 7.1 °C -0.9 °C 1012.4 hPa WSW 11.4 km/h 16.7 km/h 57 % 0 mm
16:53 7 °C -0.9 °C 1012.8 hPa WNW 6.4 km/h 13 km/h 57 % 0 mm
16:58 6.9 °C -0.8 °C 1012.8 hPa West 4.8 km/h 9.3 km/h 58 % 0 mm
17:03 6.8 °C -0.6 °C 1012.8 hPa WSW 8.7 km/h 18.5 km/h 59 % 0 mm
17:08 6.7 °C -0.5 °C 1012.8 hPa WSW 12.1 km/h 18.5 km/h 60 % 0 mm
17:13 6.6 °C -0.6 °C 1012.8 hPa WSW 6.6 km/h 16.7 km/h 60 % 0 mm
17:18 6.6 °C -0.4 °C 1013.1 hPa West 9.3 km/h 18.5 km/h 61 % 0 mm
17:23 6.5 °C -0.5 °C 1013.1 hPa West 3.7 km/h 9.3 km/h 61 % 0 mm
17:28 6.4 °C -0.6 °C 1013.1 hPa WSW 6.3 km/h 11.1 km/h 61 % 0 mm
17:33 6.4 °C -0.6 °C 1013.1 hPa West 9.7 km/h 13 km/h 61 % 0 mm
17:38 6.3 °C -0.7 °C 1013.1 hPa West 7.9 km/h 14.8 km/h 61 % 0 mm
17:43 6.3 °C -0.5 °C 1013.1 hPa WSW 6.4 km/h 12.9 km/h 62 % 0 mm
17:48 6.3 °C -0.3 °C 1013.1 hPa WSW 5.8 km/h 13 km/h 63 % 0 mm
17:53 6.2 °C -0.2 °C 1013.4 hPa WSW 5.6 km/h 11.1 km/h 64 % 0 mm
17:58 6.1 °C -0.1 °C 1013.4 hPa SW 2.9 km/h 13 km/h 65 % 0 mm
18:03 6 °C -0.1 °C 1013.4 hPa West 5.5 km/h 9.3 km/h 65 % 0 mm
18:08 5.9 °C -0.2 °C 1013.4 hPa Calm   4.8 km/h 65 % 0 mm
18:13 5.8 °C -0.2 °C 1013.4 hPa Calm   3.2 km/h 65 % 0 mm
18:18 5.8 °C -0.1 °C 1013.8 hPa WSW 3.2 km/h 12.9 km/h 66 % 0 mm
18:23 5.7 °C -0.2 °C 1013.8 hPa WSW 4.8 km/h 12.9 km/h 66 % 0 mm
18:28 5.6 °C -0.3 °C 1014.1 hPa WSW 1.6 km/h 8 km/h 66 % 0 mm
18:33 5.5 °C -0.2 °C 1014.1 hPa West 1.6 km/h 11.3 km/h 67 % 0 mm
18:38 5.5 °C -0.2 °C 1014.1 hPa WSW 3.2 km/h 9.7 km/h 67 % 0 mm
18:43 5.4 °C -0.2 °C 1014.1 hPa WSW 3.2 km/h 8 km/h 67 % 0 mm
18:48 5.4 °C 0 °C 1014.1 hPa WSW 3.2 km/h 14.5 km/h 68 % 0 mm
18:53 5.4 °C 0 °C 1014.1 hPa WSW 3.2 km/h 16.1 km/h 68 % 0 mm
18:58 5.5 °C 0.1 °C 1014.1 hPa WSW 7.2 km/h 14.5 km/h 68 % 0 mm
19:03 5.6 °C 0.3 °C 1014.4 hPa West 4.8 km/h 19.3 km/h 69 % 0 mm
19:08 5.6 °C 0.8 °C 1014.8 hPa NW 4.8 km/h 9.7 km/h 71 % 0 mm
19:13 5.5 °C 0.8 °C 1014.8 hPa NNW 3.2 km/h 9.7 km/h 72 % 0 mm
19:18 5.3 °C 0.7 °C 1014.4 hPa WNW 3.1 km/h 5.6 km/h 72 % 0 mm
19:23 5.3 °C 0.8 °C 1014.4 hPa WNW 1.6 km/h 9.7 km/h 73 % 0 mm
19:28 5.2 °C 0.9 °C 1014.4 hPa WNW 1.6 km/h 8 km/h 74 % 0 mm
19:33 5.1 °C 0.8 °C 1014.4 hPa WSW 1.6 km/h 4.8 km/h 74 % 0 mm
19:38 4.9 °C 0.7 °C 1014.8 hPa WSW 1.6 km/h 4.8 km/h 74 % 0 mm
19:43 4.8 °C 0.6 °C 1014.8 hPa WSW 3.2 km/h 8 km/h 74 % 0 mm
19:48 4.7 °C 0.7 °C 1014.8 hPa West 4.8 km/h 12.9 km/h 75 % 0 mm
19:53 4.7 °C 0.6 °C 1014.8 hPa WSW 3.2 km/h 11.3 km/h 75 % 0 mm
19:59 4.6 °C 0.7 °C 1014.8 hPa WSW 6 km/h 11.1 km/h 76 % 0 mm
20:04 4.5 °C 0.8 °C 1014.8 hPa WNW 4.7 km/h 13 km/h 77 % 0 mm
20:09 4.4 °C 0.8 °C 1014.8 hPa WSW 4.5 km/h 11.1 km/h 77 % 0 mm
20:14 4.4 °C 0.9 °C 1014.8 hPa WSW 2.3 km/h 5.6 km/h 78 % 0 mm
20:19 4.3 °C 0.8 °C 1015.1 hPa SW 1 km/h 3.7 km/h 78 % 0 mm
20:24 4.3 °C 0.8 °C 1015.1 hPa WSW 5.1 km/h 7.4 km/h 78 % 0 mm
20:29 4.2 °C 0.7 °C 1015.1 hPa WSW 1.9 km/h 3.7 km/h 78 % 0 mm
20:34 4.2 °C 0.8 °C 1014.8 hPa WSW 1.1 km/h 5.6 km/h 79 % 0 mm
20:39 4.1 °C 0.8 °C 1015.1 hPa SSW 1.4 km/h 6.4 km/h 79 % 0 mm
20:44 4 °C 0.7 °C 1014.8 hPa SW 1.3 km/h 3.7 km/h 79 % 0 mm
20:49 3.9 °C 0.8 °C 1014.8 hPa SSW 3.4 km/h 5.6 km/h 80 % 0 mm
20:54 3.8 °C 0.7 °C 1014.8 hPa SW 2.3 km/h 5.6 km/h 80 % 0 mm
20:59 3.8 °C 0.7 °C 1015.1 hPa SW 3.2 km/h 5.6 km/h 80 % 0 mm
21:04 3.7 °C 0.7 °C 1015.1 hPa WSW 3.5 km/h 5.6 km/h 81 % 0 mm
21:09 3.6 °C 0.7 °C 1015.1 hPa SSW 2.3 km/h 3.7 km/h 81 % 0 mm
21:14 3.6 °C 0.8 °C 1015.1 hPa SW 0.8 km/h 5.6 km/h 82 % 0 mm
21:19 3.5 °C 0.7 °C 1015.1 hPa West 4.8 km/h 7.4 km/h 82 % 0 mm
21:24 3.4 °C 0.8 °C 1015.1 hPa WSW 2.6 km/h 5.6 km/h 83 % 0 mm
21:29 3.4 °C 0.8 °C 1015.1 hPa SW 5.1 km/h 7.4 km/h 83 % 0 mm
21:34 3.4 °C 0.8 °C 1015.1 hPa WSW 5 km/h 11.1 km/h 83 % 0 mm
21:39 3.4 °C 0.8 °C 1015.5 hPa SW 3.9 km/h 11.1 km/h 83 % 0 mm
21:44 3.4 °C 1 °C 1015.5 hPa West 4.2 km/h 11.1 km/h 84 % 0 mm
21:50 3.5 °C 1.1 °C 1015.5 hPa WSW 6.6 km/h 9.3 km/h 84 % 0 mm
21:55 3.5 °C 0.9 °C 1015.5 hPa WNW 3.4 km/h 5.6 km/h 83 % 0 mm
22:00 3.6 °C 0.9 °C 1015.5 hPa WSW 6.6 km/h 14.5 km/h 83 % 0 mm
22:05 3.6 °C 1 °C 1015.5 hPa WSW 3.1 km/h 11.1 km/h 83 % 0 mm
22:10 3.7 °C 0.9 °C 1015.5 hPa WSW 6.1 km/h 16.7 km/h 82 % 0 mm
22:15 3.7 °C 0.6 °C 1015.8 hPa WNW 2.9 km/h 11.1 km/h 80 % 0 mm
22:20 3.8 °C 0.3 °C 1015.8 hPa WSW 7.1 km/h 12.9 km/h 78 % 0 mm
22:25 3.9 °C 0.2 °C 1015.8 hPa West 10.3 km/h 16.7 km/h 77 % 0 mm
22:30 3.9 °C 0.3 °C 1015.5 hPa West 7.4 km/h 13 km/h 77 % 0 mm
22:35 4.1 °C 0.2 °C 1015.8 hPa WSW 9.8 km/h 18.5 km/h 76 % 0 mm
22:40 4.1 °C 0.1 °C 1015.8 hPa SW 10.6 km/h 14.8 km/h 75 % 0 mm
22:45 4.1 °C 0.1 °C 1015.8 hPa WSW 10.8 km/h 16.7 km/h 75 % 0 mm
22:50 4.1 °C -0.1 °C 1015.8 hPa WSW 5.3 km/h 13 km/h 74 % 0 mm
22:55 4.1 °C -0.2 °C 1015.8 hPa WNW 3.2 km/h 7.4 km/h 74 % 0 mm
23:00 4 °C -0.1 °C 1015.8 hPa SW 6.1 km/h 11.1 km/h 75 % 0 mm
23:05 3.9 °C -0.1 °C 1015.5 hPa West 4.7 km/h 7.4 km/h 75 % 0 mm
23:10 3.8 °C -0.2 °C 1015.1 hPa West 4.3 km/h 9.3 km/h 75 % 0 mm
23:16 3.7 °C -0.1 °C 1015.5 hPa WNW 8.4 km/h 16.7 km/h 76 % 0 mm
23:21 3.7 °C -0.2 °C 1015.8 hPa WNW 3.5 km/h 6.4 km/h 76 % 0 mm
23:26 3.6 °C -0.1 °C 1015.8 hPa West 3.2 km/h 9.3 km/h 77 % 0 mm
23:31 3.6 °C -0.1 °C 1015.8 hPa WSW 7.7 km/h 17.7 km/h 77 % 0 mm
23:36 3.4 °C -0.1 °C 1015.8 hPa West 6.6 km/h 9.3 km/h 78 % 0 mm
23:41 3.4 °C -0.1 °C 1016.1 hPa West 4.3 km/h 9.7 km/h 78 % 0 mm
23:46 3.3 °C -0.2 °C 1016.1 hPa West 5.8 km/h 9.3 km/h 78 % 0 mm
23:51 3.3 °C -0.2 °C 1015.8 hPa WNW 6.8 km/h 13 km/h 78 % 0 mm
23:56 3.2 °C -0.2 °C 1015.8 hPa WNW 5.1 km/h 9.3 km/h 78 % 0 mm
Crab Meadow Weather
Compliments of Weather Underground - 3 mb

Script developed by  Jim McMurry - jmcmurry@mwt.net Adapted for the template by  Wim van der Kuil - Leuven-Template.eu

Astronomy: Water covers 71% of Earth.